AUA45T LOWW-LEMG
Flight info
| Callsign | AUA45T |
|---|---|
| Flight time | 2h 50m |
| Altitude | 34000 |
| Route | OSPEN DCT ABRUK DCT SETAL DCT DETSA/N0453F350 DCT GEKBA DCT VAMTU DCT KOLON DCT GANGU DCT PADKO DCT DIVKO DCT NILDU DCT NENDA N975 BCN M985 VIBAS |
| Aircraft | A321/M-SDE3FGHIRWY/LB1 |
Departure
| Time | 2026-04-25 09:23 |
|---|---|
| Airport | Vienna International Airport (LOWW) |
Arrival
| Time | 2026-04-25 12:14 |
|---|---|
| Airport | Málaga-Costa del Sol Airport (LEMG) |
| Time | Latitude | Longitude | Altitude | Speed | Heading |
|---|---|---|---|---|---|
| 2026-04-25 08:43 | 48.12007 | 16.56984 | 621 ft | 0 kts | 26° |
| 2026-04-25 09:13 | 48.12003 | 16.56981 | 643 ft | 2 kts | 27° |
| 2026-04-25 09:14 | 48.11986 | 16.56968 | 612 ft | 3 kts | 26° |
| 2026-04-25 09:14 | 48.11970 | 16.56956 | 614 ft | 3 kts | 57° |
| 2026-04-25 09:14 | 48.11967 | 16.56939 | 624 ft | 2 kts | 115° |
| 2026-04-25 09:14 | 48.11967 | 16.56937 | 624 ft | 1 kts | 116° |
| 2026-04-25 09:15 | 48.11962 | 16.56954 | 619 ft | 1 kts | 116° |
| 2026-04-25 09:15 | 48.11962 | 16.56955 | 618 ft | 0 kts | 116° |
| 2026-04-25 09:17 | 48.11950 | 16.56989 | 620 ft | 7 kts | 116° |
| 2026-04-25 09:18 | 48.11922 | 16.57078 | 614 ft | 12 kts | 116° |
| 2026-04-25 09:18 | 48.11882 | 16.57180 | 616 ft | 10 kts | 139° |
| 2026-04-25 09:18 | 48.11840 | 16.57259 | 624 ft | 10 kts | 119° |
| 2026-04-25 09:18 | 48.11789 | 16.57353 | 620 ft | 12 kts | 155° |
| 2026-04-25 09:19 | 48.11713 | 16.57386 | 616 ft | 11 kts | 163° |
| 2026-04-25 09:19 | 48.11619 | 16.57428 | 620 ft | 17 kts | 163° |
| 2026-04-25 09:19 | 48.11494 | 16.57457 | 609 ft | 18 kts | 194° |
| 2026-04-25 09:19 | 48.11378 | 16.57378 | 621 ft | 18 kts | 206° |
| 2026-04-25 09:20 | 48.11271 | 16.57301 | 613 ft | 16 kts | 205° |
| 2026-04-25 09:20 | 48.11203 | 16.57302 | 611 ft | 9 kts | 135° |
| 2026-04-25 09:20 | 48.11165 | 16.57408 | 624 ft | 12 kts | 116° |
| 2026-04-25 09:20 | 48.11131 | 16.57516 | 614 ft | 11 kts | 115° |
| 2026-04-25 09:21 | 48.11100 | 16.57610 | 611 ft | 9 kts | 118° |
| 2026-04-25 09:21 | 48.11052 | 16.57644 | 609 ft | 7 kts | 183° |
| 2026-04-25 09:21 | 48.11012 | 16.57624 | 609 ft | 6 kts | 203° |
| 2026-04-25 09:21 | 48.10968 | 16.57592 | 620 ft | 8 kts | 206° |
| 2026-04-25 09:22 | 48.10925 | 16.57558 | 620 ft | 6 kts | 220° |
| 2026-04-25 09:22 | 48.10922 | 16.57511 | 614 ft | 4 kts | 286° |
| 2026-04-25 09:22 | 48.10928 | 16.57491 | 617 ft | 0 kts | 295° |
| 2026-04-25 09:22 | 48.10952 | 16.57417 | 615 ft | 30 kts | 296° |
| 2026-04-25 09:23 | 48.11152 | 16.56807 | 617 ft | 97 kts | 296° |
| 2026-04-25 09:23 | 48.11526 | 16.55653 | 615 ft | 147 kts | 296° |
| 2026-04-25 09:23 | 48.12018 | 16.54125 | 843 ft | 167 kts | 297° |
| 2026-04-25 09:23 | 48.12411 | 16.52500 | 1498 ft | 171 kts | 274° |
| 2026-04-25 09:24 | 48.11943 | 16.50825 | 1873 ft | 192 kts | 225° |
| 2026-04-25 09:24 | 48.10805 | 16.49581 | 2061 ft | 213 kts | 214° |
| 2026-04-25 09:24 | 48.09478 | 16.48353 | 2245 ft | 237 kts | 213° |
| 2026-04-25 09:24 | 48.08015 | 16.46976 | 2548 ft | 256 kts | 214° |
| 2026-04-25 09:25 | 48.06547 | 16.45443 | 3303 ft | 258 kts | 220° |
| 2026-04-25 09:25 | 48.05133 | 16.43786 | 4107 ft | 258 kts | 224° |
| 2026-04-25 09:25 | 48.03753 | 16.42066 | 4902 ft | 259 kts | 226° |
| 2026-04-25 09:25 | 48.02383 | 16.40302 | 5628 ft | 262 kts | 227° |
| 2026-04-25 09:26 | 48.00997 | 16.38494 | 6282 ft | 267 kts | 227° |
| 2026-04-25 09:26 | 47.99586 | 16.36647 | 6913 ft | 272 kts | 226° |
| 2026-04-25 09:26 | 47.98313 | 16.34574 | 7501 ft | 270 kts | 244° |
| 2026-04-25 09:26 | 47.97545 | 16.32033 | 8105 ft | 270 kts | 252° |
| 2026-04-25 09:27 | 47.96845 | 16.29403 | 8727 ft | 275 kts | 252° |
| 2026-04-25 09:27 | 47.96146 | 16.26766 | 9315 ft | 280 kts | 252° |
| 2026-04-25 09:27 | 47.95422 | 16.24045 | 9931 ft | 284 kts | 252° |
| 2026-04-25 09:27 | 47.94678 | 16.21264 | 10272 ft | 298 kts | 252° |
| 2026-04-25 09:28 | 47.93888 | 16.18297 | 10400 ft | 317 kts | 251° |
| 2026-04-25 09:28 | 47.93049 | 16.15149 | 10513 ft | 336 kts | 251° |
| 2026-04-25 09:28 | 47.92162 | 16.11826 | 10647 ft | 353 kts | 251° |
| 2026-04-25 09:28 | 47.91237 | 16.08385 | 10999 ft | 361 kts | 251° |
| 2026-04-25 09:29 | 47.90291 | 16.04897 | 11518 ft | 365 kts | 250° |
| 2026-04-25 09:29 | 47.89335 | 16.01380 | 12101 ft | 367 kts | 250° |
| 2026-04-25 09:29 | 47.88373 | 15.97844 | 12677 ft | 369 kts | 250° |
| 2026-04-25 09:29 | 47.87408 | 15.94290 | 13237 ft | 371 kts | 250° |
| 2026-04-25 09:30 | 47.86436 | 15.90714 | 13787 ft | 373 kts | 250° |
| 2026-04-25 09:30 | 47.85460 | 15.87122 | 14264 ft | 376 kts | 250° |
| 2026-04-25 09:30 | 47.84489 | 15.83551 | 14737 ft | 377 kts | 250° |
| 2026-04-25 09:30 | 47.83503 | 15.79922 | 15202 ft | 379 kts | 250° |
| 2026-04-25 09:31 | 47.82511 | 15.76284 | 15712 ft | 378 kts | 250° |
| 2026-04-25 09:31 | 47.81520 | 15.72655 | 16206 ft | 378 kts | 251° |
| 2026-04-25 09:31 | 47.80528 | 15.69030 | 16630 ft | 380 kts | 251° |
| 2026-04-25 09:31 | 47.79526 | 15.65375 | 16956 ft | 382 kts | 251° |
| 2026-04-25 09:32 | 47.78520 | 15.61705 | 17338 ft | 384 kts | 250° |
| 2026-04-25 09:32 | 47.77507 | 15.58017 | 17754 ft | 385 kts | 251° |
| 2026-04-25 09:32 | 47.76492 | 15.54331 | 18176 ft | 387 kts | 250° |
| 2026-04-25 09:32 | 47.75466 | 15.50620 | 18494 ft | 390 kts | 250° |
| 2026-04-25 09:33 | 47.74431 | 15.46878 | 18799 ft | 392 kts | 250° |
| 2026-04-25 09:33 | 47.73391 | 15.43118 | 19148 ft | 393 kts | 251° |
| 2026-04-25 09:33 | 47.72351 | 15.39355 | 19491 ft | 395 kts | 250° |
| 2026-04-25 09:33 | 47.71303 | 15.35573 | 19796 ft | 397 kts | 250° |
| 2026-04-25 09:34 | 47.70248 | 15.31768 | 20120 ft | 399 kts | 250° |
| 2026-04-25 09:34 | 47.69187 | 15.27956 | 20496 ft | 400 kts | 250° |
| 2026-04-25 09:34 | 47.68118 | 15.24127 | 20771 ft | 403 kts | 250° |
| 2026-04-25 09:34 | 47.67049 | 15.20312 | 21066 ft | 406 kts | 249° |
| 2026-04-25 09:35 | 47.65948 | 15.16392 | 21426 ft | 408 kts | 249° |
| 2026-04-25 09:35 | 47.64854 | 15.12499 | 21790 ft | 409 kts | 249° |
| 2026-04-25 09:35 | 47.63769 | 15.08642 | 22103 ft | 411 kts | 249° |
| 2026-04-25 09:35 | 47.62665 | 15.04720 | 22381 ft | 414 kts | 249° |
| 2026-04-25 09:36 | 47.61554 | 15.00772 | 22729 ft | 416 kts | 249° |
| 2026-04-25 09:36 | 47.60424 | 14.96763 | 23063 ft | 417 kts | 249° |
| 2026-04-25 09:36 | 47.59316 | 14.92838 | 23371 ft | 419 kts | 249° |
| 2026-04-25 09:36 | 47.58188 | 14.88845 | 23694 ft | 421 kts | 249° |
| 2026-04-25 09:37 | 47.57049 | 14.84827 | 23991 ft | 423 kts | 249° |
| 2026-04-25 09:37 | 47.55909 | 14.80812 | 24275 ft | 424 kts | 249° |
| 2026-04-25 09:37 | 47.54763 | 14.76778 | 24554 ft | 426 kts | 249° |
| 2026-04-25 09:37 | 47.53610 | 14.72732 | 24837 ft | 427 kts | 248° |
| 2026-04-25 09:38 | 47.52451 | 14.68678 | 25112 ft | 428 kts | 248° |
| 2026-04-25 09:38 | 47.51288 | 14.64617 | 25363 ft | 430 kts | 248° |
| 2026-04-25 09:38 | 47.50120 | 14.60539 | 25627 ft | 431 kts | 248° |
| 2026-04-25 09:38 | 47.48945 | 14.56446 | 25875 ft | 433 kts | 248° |
| 2026-04-25 09:39 | 47.47766 | 14.52341 | 26124 ft | 435 kts | 248° |
| 2026-04-25 09:39 | 47.46581 | 14.48220 | 26374 ft | 436 kts | 248° |
| 2026-04-25 09:39 | 47.45407 | 14.44151 | 26599 ft | 437 kts | 248° |
| 2026-04-25 09:40 | 47.43010 | 14.35870 | 27037 ft | 440 kts | 248° |
| 2026-04-25 09:40 | 47.41806 | 14.31718 | 27255 ft | 441 kts | 248° |
| 2026-04-25 09:40 | 47.40597 | 14.27553 | 27448 ft | 442 kts | 248° |
| 2026-04-25 09:40 | 47.39384 | 14.23377 | 27647 ft | 443 kts | 248° |
| 2026-04-25 09:41 | 47.38165 | 14.19193 | 27823 ft | 444 kts | 248° |
| 2026-04-25 09:41 | 47.36945 | 14.15011 | 28008 ft | 444 kts | 248° |
| 2026-04-25 09:41 | 47.35725 | 14.10836 | 28272 ft | 443 kts | 248° |
| 2026-04-25 09:41 | 47.34506 | 14.06667 | 28497 ft | 442 kts | 248° |
| 2026-04-25 09:42 | 47.33287 | 14.02504 | 28720 ft | 442 kts | 248° |
| 2026-04-25 09:42 | 47.32064 | 13.98346 | 28921 ft | 442 kts | 247° |
| 2026-04-25 09:42 | 47.30843 | 13.94196 | 29186 ft | 441 kts | 248° |
| 2026-04-25 09:42 | 47.29620 | 13.90050 | 29438 ft | 440 kts | 247° |
| 2026-04-25 09:43 | 47.28397 | 13.85918 | 29700 ft | 439 kts | 247° |
| 2026-04-25 09:43 | 47.27175 | 13.81794 | 29918 ft | 439 kts | 247° |
| 2026-04-25 09:43 | 47.25956 | 13.77680 | 30160 ft | 438 kts | 247° |
| 2026-04-25 09:43 | 47.24739 | 13.73573 | 30376 ft | 437 kts | 247° |
| 2026-04-25 09:44 | 47.23522 | 13.69483 | 30605 ft | 436 kts | 247° |
| 2026-04-25 09:44 | 47.22307 | 13.65404 | 30796 ft | 435 kts | 247° |
| 2026-04-25 09:44 | 47.21095 | 13.61339 | 31020 ft | 434 kts | 247° |
| 2026-04-25 09:44 | 47.19885 | 13.57286 | 31229 ft | 433 kts | 247° |
| 2026-04-25 09:45 | 47.18673 | 13.53234 | 31391 ft | 433 kts | 247° |
| 2026-04-25 09:45 | 47.17459 | 13.49189 | 31585 ft | 433 kts | 247° |
| 2026-04-25 09:45 | 47.16246 | 13.45151 | 31803 ft | 432 kts | 247° |
| 2026-04-25 09:45 | 47.15034 | 13.41118 | 32022 ft | 431 kts | 247° |
| 2026-04-25 09:46 | 47.13838 | 13.37148 | 32216 ft | 431 kts | 247° |
| 2026-04-25 09:46 | 47.12626 | 13.33130 | 32440 ft | 430 kts | 247° |
| 2026-04-25 09:46 | 47.11415 | 13.29122 | 32654 ft | 429 kts | 247° |
| 2026-04-25 09:46 | 47.10208 | 13.25130 | 32864 ft | 428 kts | 247° |
| 2026-04-25 09:47 | 47.09001 | 13.21145 | 33092 ft | 427 kts | 247° |
| 2026-04-25 09:47 | 47.07798 | 13.17176 | 33294 ft | 426 kts | 247° |
| 2026-04-25 09:47 | 47.06590 | 13.13202 | 33499 ft | 425 kts | 247° |
| 2026-04-25 09:47 | 47.05385 | 13.09251 | 33674 ft | 424 kts | 247° |
| 2026-04-25 09:48 | 47.04176 | 13.05303 | 33850 ft | 424 kts | 246° |
| 2026-04-25 09:48 | 47.02970 | 13.01363 | 34033 ft | 424 kts | 246° |
| 2026-04-25 09:48 | 47.00564 | 12.93502 | 34103 ft | 422 kts | 246° |
| 2026-04-25 09:49 | 46.98166 | 12.85678 | 34101 ft | 421 kts | 246° |
| 2026-04-25 09:49 | 46.95758 | 12.77875 | 34101 ft | 420 kts | 246° |
| 2026-04-25 09:50 | 46.93347 | 12.70076 | 34102 ft | 420 kts | 246° |
| 2026-04-25 09:50 | 46.90934 | 12.62285 | 34121 ft | 421 kts | 246° |
| 2026-04-25 09:51 | 46.88516 | 12.54492 | 34118 ft | 421 kts | 246° |
| 2026-04-25 09:51 | 46.86085 | 12.46698 | 34134 ft | 422 kts | 246° |
| 2026-04-25 09:52 | 46.83647 | 12.38938 | 34152 ft | 422 kts | 246° |
| 2026-04-25 09:52 | 46.81197 | 12.31141 | 34167 ft | 422 kts | 246° |
| 2026-04-25 09:53 | 46.78068 | 12.23908 | 34303 ft | 423 kts | 233° |
| 2026-04-25 09:53 | 46.76284 | 12.20493 | 34484 ft | 423 kts | 234° |
| 2026-04-25 09:53 | 46.74506 | 12.17078 | 34600 ft | 422 kts | 234° |
| 2026-04-25 09:54 | 46.72733 | 12.13666 | 34747 ft | 422 kts | 234° |
| 2026-04-25 09:54 | 46.70956 | 12.10252 | 34893 ft | 422 kts | 234° |
| 2026-04-25 09:54 | 46.69181 | 12.06854 | 35048 ft | 421 kts | 234° |
| 2026-04-25 09:54 | 46.67403 | 12.03454 | 35101 ft | 422 kts | 234° |
| 2026-04-25 09:55 | 46.63850 | 11.96659 | 35098 ft | 422 kts | 234° |
| 2026-04-25 09:55 | 46.60317 | 11.89918 | 35098 ft | 422 kts | 234° |
| 2026-04-25 09:56 | 46.56751 | 11.83149 | 35097 ft | 422 kts | 234° |
| 2026-04-25 09:56 | 46.53180 | 11.76382 | 35095 ft | 422 kts | 234° |
| 2026-04-25 09:57 | 46.49601 | 11.69611 | 35086 ft | 423 kts | 234° |
| 2026-04-25 09:57 | 46.46016 | 11.62854 | 35081 ft | 423 kts | 233° |
| 2026-04-25 09:58 | 46.42425 | 11.56100 | 35078 ft | 423 kts | 233° |
| 2026-04-25 09:58 | 46.38830 | 11.49347 | 35098 ft | 423 kts | 233° |
| 2026-04-25 09:59 | 46.35229 | 11.42602 | 35090 ft | 423 kts | 233° |
| 2026-04-25 09:59 | 46.31644 | 11.35892 | 35092 ft | 424 kts | 233° |
| 2026-04-25 10:00 | 46.28024 | 11.29151 | 35097 ft | 424 kts | 233° |
| 2026-04-25 10:00 | 46.24397 | 11.22421 | 35200 ft | 424 kts | 233° |
| 2026-04-25 10:01 | 46.20803 | 11.15746 | 35203 ft | 423 kts | 233° |
| 2026-04-25 10:01 | 46.17186 | 11.09042 | 35190 ft | 423 kts | 233° |
| 2026-04-25 10:02 | 46.13564 | 11.02367 | 35177 ft | 422 kts | 233° |
| 2026-04-25 10:02 | 46.09942 | 10.95695 | 35159 ft | 422 kts | 233° |
| 2026-04-25 10:03 | 46.06923 | 10.90150 | 35143 ft | 422 kts | 233° |
| 2026-04-25 10:03 | 46.03293 | 10.83495 | 35112 ft | 422 kts | 233° |
| 2026-04-25 10:04 | 45.99662 | 10.76848 | 35103 ft | 422 kts | 233° |
| 2026-04-25 10:04 | 45.96019 | 10.70211 | 35104 ft | 423 kts | 232° |
| 2026-04-25 10:05 | 45.92375 | 10.63579 | 35109 ft | 422 kts | 233° |
| 2026-04-25 10:05 | 45.88755 | 10.56994 | 35104 ft | 422 kts | 233° |
| 2026-04-25 10:06 | 45.85108 | 10.50392 | 35092 ft | 423 kts | 232° |
| 2026-04-25 10:06 | 45.81447 | 10.43784 | 35084 ft | 423 kts | 232° |
| 2026-04-25 10:07 | 45.77785 | 10.37175 | 35086 ft | 424 kts | 232° |
| 2026-04-25 10:07 | 45.74114 | 10.30561 | 35074 ft | 424 kts | 232° |
| 2026-04-25 10:08 | 45.70436 | 10.23960 | 35061 ft | 424 kts | 232° |
| 2026-04-25 10:08 | 45.66747 | 10.17355 | 35071 ft | 425 kts | 232° |
| 2026-04-25 10:09 | 45.63058 | 10.10768 | 35074 ft | 424 kts | 232° |
| 2026-04-25 10:09 | 45.59366 | 10.04188 | 35077 ft | 424 kts | 232° |
| 2026-04-25 10:10 | 45.55690 | 9.97646 | 35078 ft | 424 kts | 232° |
| 2026-04-25 10:10 | 45.51991 | 9.91088 | 35071 ft | 424 kts | 232° |
| 2026-04-25 10:11 | 45.48277 | 9.84536 | 35070 ft | 425 kts | 232° |
| 2026-04-25 10:11 | 45.44560 | 9.77983 | 35113 ft | 425 kts | 232° |
| 2026-04-25 10:12 | 45.40848 | 9.71430 | 35121 ft | 425 kts | 232° |
| 2026-04-25 10:13 | 45.35272 | 9.61617 | 35113 ft | 425 kts | 232° |
| 2026-04-25 10:13 | 45.31566 | 9.55128 | 35106 ft | 426 kts | 232° |
| 2026-04-25 10:14 | 45.27832 | 9.48602 | 35098 ft | 426 kts | 232° |
| 2026-04-25 10:14 | 45.24091 | 9.42078 | 35092 ft | 426 kts | 232° |
| 2026-04-25 10:15 | 45.20345 | 9.35558 | 35080 ft | 426 kts | 232° |
| 2026-04-25 10:15 | 45.16591 | 9.29045 | 35071 ft | 427 kts | 231° |
| 2026-04-25 10:16 | 45.12821 | 9.22528 | 35076 ft | 427 kts | 231° |
| 2026-04-25 10:16 | 45.09072 | 9.16062 | 35075 ft | 428 kts | 231° |
| 2026-04-25 10:17 | 45.05299 | 9.09542 | 35076 ft | 428 kts | 231° |
| 2026-04-25 10:17 | 45.01515 | 9.03032 | 35066 ft | 428 kts | 231° |
| 2026-04-25 10:18 | 44.97720 | 8.96523 | 35080 ft | 429 kts | 231° |
| 2026-04-25 10:18 | 44.93912 | 8.90006 | 35083 ft | 430 kts | 231° |
| 2026-04-25 10:19 | 44.90098 | 8.83493 | 35084 ft | 430 kts | 231° |
| 2026-04-25 10:19 | 44.86283 | 8.76982 | 35091 ft | 431 kts | 231° |
| 2026-04-25 10:20 | 44.82453 | 8.70469 | 35078 ft | 432 kts | 231° |
| 2026-04-25 10:20 | 44.78634 | 8.64005 | 35080 ft | 432 kts | 231° |
| 2026-04-25 10:21 | 44.74791 | 8.57499 | 35086 ft | 433 kts | 231° |
| 2026-04-25 10:21 | 44.70933 | 8.50986 | 35090 ft | 433 kts | 231° |
| 2026-04-25 10:22 | 44.67074 | 8.44483 | 35080 ft | 433 kts | 231° |
| 2026-04-25 10:22 | 44.63205 | 8.37994 | 35084 ft | 433 kts | 231° |
| 2026-04-25 10:23 | 44.59335 | 8.31505 | 35083 ft | 434 kts | 231° |
| 2026-04-25 10:23 | 44.55457 | 8.25001 | 35081 ft | 435 kts | 231° |
| 2026-04-25 10:24 | 44.51585 | 8.18535 | 35076 ft | 435 kts | 231° |
| 2026-04-25 10:24 | 44.47660 | 8.12009 | 35079 ft | 435 kts | 231° |
| 2026-04-25 10:25 | 44.43756 | 8.05526 | 35082 ft | 435 kts | 230° |
| 2026-04-25 10:25 | 44.39874 | 7.99092 | 35082 ft | 436 kts | 230° |
| 2026-04-25 10:26 | 44.35960 | 7.92623 | 35081 ft | 436 kts | 230° |
| 2026-04-25 10:26 | 44.32038 | 7.86156 | 35069 ft | 436 kts | 230° |
| 2026-04-25 10:27 | 44.28107 | 7.79687 | 35074 ft | 437 kts | 230° |
| 2026-04-25 10:27 | 44.23724 | 7.73816 | 35075 ft | 437 kts | 222° |
| 2026-04-25 10:28 | 44.19161 | 7.68192 | 35078 ft | 438 kts | 222° |
| 2026-04-25 10:28 | 44.14620 | 7.62537 | 35073 ft | 438 kts | 226° |
| 2026-04-25 10:29 | 44.10594 | 7.56186 | 35081 ft | 438 kts | 230° |
| 2026-04-25 10:29 | 44.06586 | 7.49777 | 35083 ft | 439 kts | 230° |
| 2026-04-25 10:30 | 44.02601 | 7.43425 | 35093 ft | 439 kts | 230° |
| 2026-04-25 10:30 | 43.98586 | 7.37025 | 35099 ft | 439 kts | 230° |
| 2026-04-25 10:31 | 43.94570 | 7.30639 | 35097 ft | 439 kts | 229° |
| 2026-04-25 10:31 | 43.90539 | 7.24249 | 35098 ft | 440 kts | 229° |
| 2026-04-25 10:32 | 43.86501 | 7.17857 | 35099 ft | 440 kts | 229° |
| 2026-04-25 10:32 | 43.82486 | 7.11527 | 35103 ft | 440 kts | 229° |
| 2026-04-25 10:33 | 43.78433 | 7.05150 | 35102 ft | 441 kts | 229° |
| 2026-04-25 10:33 | 43.74380 | 6.98770 | 35104 ft | 441 kts | 230° |
| 2026-04-25 10:34 | 43.71108 | 6.91632 | 35100 ft | 440 kts | 247° |
| 2026-04-25 10:34 | 43.68811 | 6.83798 | 35094 ft | 440 kts | 248° |
| 2026-04-25 10:35 | 43.66504 | 6.75975 | 35112 ft | 439 kts | 248° |
| 2026-04-25 10:35 | 43.64200 | 6.68222 | 35104 ft | 439 kts | 248° |
| 2026-04-25 10:36 | 43.61886 | 6.60423 | 35089 ft | 439 kts | 248° |
| 2026-04-25 10:36 | 43.59562 | 6.52619 | 35079 ft | 440 kts | 248° |
| 2026-04-25 10:37 | 43.57225 | 6.44796 | 35075 ft | 441 kts | 248° |
| 2026-04-25 10:37 | 43.54882 | 6.36965 | 35081 ft | 442 kts | 248° |
| 2026-04-25 10:38 | 43.52533 | 6.29126 | 35095 ft | 442 kts | 248° |
| 2026-04-25 10:38 | 43.50172 | 6.21303 | 35089 ft | 442 kts | 248° |
| 2026-04-25 10:39 | 43.47805 | 6.13481 | 35093 ft | 442 kts | 248° |
| 2026-04-25 10:39 | 43.45435 | 6.05665 | 35082 ft | 443 kts | 248° |
| 2026-04-25 10:40 | 43.43056 | 5.97844 | 35088 ft | 443 kts | 248° |
| 2026-04-25 10:40 | 43.40677 | 5.90014 | 35098 ft | 444 kts | 248° |
| 2026-04-25 10:41 | 43.38286 | 5.82183 | 35100 ft | 444 kts | 248° |
| 2026-04-25 10:41 | 43.35882 | 5.74363 | 35113 ft | 444 kts | 248° |
| 2026-04-25 10:42 | 43.33469 | 5.66551 | 35123 ft | 444 kts | 248° |
| 2026-04-25 10:42 | 43.31057 | 5.58753 | 35128 ft | 443 kts | 248° |
| 2026-04-25 10:43 | 43.28651 | 5.50963 | 35128 ft | 443 kts | 248° |
| 2026-04-25 10:43 | 43.26235 | 5.43167 | 35107 ft | 444 kts | 248° |
| 2026-04-25 10:44 | 43.23824 | 5.35425 | 35102 ft | 445 kts | 247° |
| 2026-04-25 10:44 | 43.21387 | 5.27623 | 35127 ft | 444 kts | 247° |
| 2026-04-25 10:45 | 43.18948 | 5.19841 | 35137 ft | 444 kts | 247° |
| 2026-04-25 10:45 | 43.16504 | 5.12074 | 35139 ft | 444 kts | 247° |
| 2026-04-25 10:46 | 43.14057 | 5.04317 | 35136 ft | 444 kts | 247° |
| 2026-04-25 10:46 | 43.11604 | 4.96558 | 35143 ft | 444 kts | 247° |
| 2026-04-25 10:47 | 43.09151 | 4.88813 | 35141 ft | 443 kts | 247° |
| 2026-04-25 10:47 | 43.06637 | 4.81113 | 35147 ft | 443 kts | 242° |
| 2026-04-25 10:48 | 43.02917 | 4.74432 | 35143 ft | 444 kts | 223° |
| 2026-04-25 10:48 | 42.98321 | 4.68883 | 35143 ft | 444 kts | 222° |
| 2026-04-25 10:49 | 42.93690 | 4.63283 | 35136 ft | 444 kts | 222° |
| 2026-04-25 10:49 | 42.89069 | 4.57691 | 35144 ft | 444 kts | 222° |
| 2026-04-25 10:50 | 42.84435 | 4.52105 | 35143 ft | 444 kts | 222° |
| 2026-04-25 10:50 | 42.79792 | 4.46549 | 35144 ft | 444 kts | 222° |
| 2026-04-25 10:51 | 42.75145 | 4.40993 | 35148 ft | 444 kts | 222° |
| 2026-04-25 10:51 | 42.71285 | 4.36377 | 35147 ft | 444 kts | 222° |
| 2026-04-25 10:52 | 42.66638 | 4.30835 | 35141 ft | 444 kts | 222° |
| 2026-04-25 10:52 | 42.61231 | 4.24404 | 35149 ft | 444 kts | 222° |
| 2026-04-25 10:53 | 42.57336 | 4.19777 | 35154 ft | 444 kts | 222° |
| 2026-04-25 10:53 | 42.52682 | 4.14257 | 35155 ft | 444 kts | 221° |
| 2026-04-25 10:54 | 42.48024 | 4.08749 | 35146 ft | 445 kts | 222° |
| 2026-04-25 10:54 | 42.43389 | 4.03272 | 35146 ft | 445 kts | 221° |
| 2026-04-25 10:55 | 42.38715 | 3.97774 | 35149 ft | 445 kts | 221° |
| 2026-04-25 10:55 | 42.34036 | 3.92275 | 35148 ft | 445 kts | 221° |
| 2026-04-25 10:56 | 42.29356 | 3.86783 | 35145 ft | 446 kts | 221° |
| 2026-04-25 10:56 | 42.24984 | 3.80889 | 35136 ft | 444 kts | 234° |
| 2026-04-25 10:57 | 42.21416 | 3.74070 | 35136 ft | 444 kts | 235° |
| 2026-04-25 10:57 | 42.17860 | 3.67316 | 35132 ft | 445 kts | 235° |
| 2026-04-25 10:58 | 42.14259 | 3.60531 | 35129 ft | 445 kts | 234° |
| 2026-04-25 10:58 | 42.10654 | 3.53741 | 35140 ft | 445 kts | 234° |
| 2026-04-25 10:59 | 42.07051 | 3.46957 | 35133 ft | 446 kts | 234° |
| 2026-04-25 10:59 | 42.03443 | 3.40162 | 35138 ft | 446 kts | 234° |
| 2026-04-25 11:00 | 41.99851 | 3.33415 | 35137 ft | 446 kts | 234° |
| 2026-04-25 11:00 | 41.96227 | 3.26633 | 35145 ft | 447 kts | 234° |
| 2026-04-25 11:01 | 41.92588 | 3.19855 | 35139 ft | 447 kts | 234° |
| 2026-04-25 11:01 | 41.88945 | 3.13084 | 35141 ft | 447 kts | 234° |
| 2026-04-25 11:02 | 41.85307 | 3.06314 | 35142 ft | 447 kts | 234° |
| 2026-04-25 11:02 | 41.81666 | 2.99556 | 35135 ft | 447 kts | 234° |
| 2026-04-25 11:03 | 41.78037 | 2.92832 | 35138 ft | 447 kts | 234° |
| 2026-04-25 11:03 | 41.74389 | 2.86082 | 35135 ft | 447 kts | 234° |
| 2026-04-25 11:04 | 41.70736 | 2.79354 | 35146 ft | 447 kts | 234° |
| 2026-04-25 11:04 | 41.67056 | 2.72653 | 35144 ft | 447 kts | 233° |
| 2026-04-25 11:05 | 41.63253 | 2.66083 | 35142 ft | 446 kts | 231° |
| 2026-04-25 11:05 | 41.59405 | 2.59574 | 35145 ft | 446 kts | 231° |
| 2026-04-25 11:06 | 41.55590 | 2.53093 | 35150 ft | 446 kts | 232° |
| 2026-04-25 11:06 | 41.51775 | 2.46561 | 35153 ft | 446 kts | 232° |
| 2026-04-25 11:07 | 41.47956 | 2.40043 | 35157 ft | 446 kts | 231° |
| 2026-04-25 11:07 | 41.44127 | 2.33525 | 35159 ft | 446 kts | 231° |
| 2026-04-25 11:08 | 41.40299 | 2.27005 | 35158 ft | 446 kts | 231° |
| 2026-04-25 11:08 | 41.36467 | 2.20503 | 35172 ft | 446 kts | 231° |
| 2026-04-25 11:09 | 41.32628 | 2.14023 | 35182 ft | 445 kts | 231° |
| 2026-04-25 11:09 | 41.28725 | 2.07609 | 35174 ft | 446 kts | 229° |
| 2026-04-25 11:10 | 41.24584 | 2.01483 | 35167 ft | 446 kts | 227° |
| 2026-04-25 11:10 | 41.20396 | 1.95482 | 35164 ft | 446 kts | 227° |
| 2026-04-25 11:11 | 41.16218 | 1.89387 | 35162 ft | 446 kts | 227° |
| 2026-04-25 11:11 | 41.12081 | 1.83262 | 35155 ft | 445 kts | 227° |
| 2026-04-25 11:12 | 41.07944 | 1.77152 | 35148 ft | 445 kts | 227° |
| 2026-04-25 11:12 | 41.03794 | 1.71062 | 35150 ft | 445 kts | 227° |
| 2026-04-25 11:13 | 40.99641 | 1.64968 | 35147 ft | 446 kts | 227° |
| 2026-04-25 11:13 | 40.95483 | 1.58882 | 35148 ft | 446 kts | 227° |
| 2026-04-25 11:14 | 40.91331 | 1.52846 | 35151 ft | 446 kts | 227° |
| 2026-04-25 11:14 | 40.87156 | 1.46778 | 35151 ft | 446 kts | 227° |
| 2026-04-25 11:15 | 40.82984 | 1.40714 | 35148 ft | 446 kts | 227° |
| 2026-04-25 11:15 | 40.78800 | 1.34645 | 35148 ft | 446 kts | 227° |
| 2026-04-25 11:16 | 40.72508 | 1.25556 | 35150 ft | 447 kts | 227° |
| 2026-04-25 11:16 | 40.68322 | 1.19514 | 35150 ft | 446 kts | 227° |
| 2026-04-25 11:17 | 40.64162 | 1.13512 | 35143 ft | 446 kts | 227° |
| 2026-04-25 11:17 | 40.59974 | 1.07480 | 35147 ft | 446 kts | 227° |
| 2026-04-25 11:18 | 40.55781 | 1.01463 | 35149 ft | 446 kts | 227° |
| 2026-04-25 11:18 | 40.51593 | 0.95460 | 35150 ft | 446 kts | 227° |
| 2026-04-25 11:19 | 40.47389 | 0.89471 | 35148 ft | 446 kts | 226° |
| 2026-04-25 11:19 | 40.43178 | 0.83486 | 35152 ft | 446 kts | 226° |
| 2026-04-25 11:20 | 40.38970 | 0.77497 | 35152 ft | 446 kts | 226° |
| 2026-04-25 11:20 | 40.34763 | 0.71520 | 35154 ft | 445 kts | 226° |
| 2026-04-25 11:21 | 40.30559 | 0.65569 | 35158 ft | 445 kts | 226° |
| 2026-04-25 11:21 | 40.26353 | 0.59629 | 35157 ft | 444 kts | 226° |
| 2026-04-25 11:22 | 40.22865 | 0.54700 | 35158 ft | 444 kts | 226° |
| 2026-04-25 11:22 | 40.17972 | 0.47814 | 35154 ft | 444 kts | 226° |
| 2026-04-25 11:23 | 40.13757 | 0.41903 | 35149 ft | 444 kts | 226° |
| 2026-04-25 11:23 | 40.09544 | 0.35990 | 35152 ft | 444 kts | 225° |
| 2026-04-25 11:24 | 40.05329 | 0.30095 | 35139 ft | 444 kts | 225° |
| 2026-04-25 11:24 | 40.01105 | 0.24198 | 35143 ft | 444 kts | 225° |
| 2026-04-25 11:25 | 39.96888 | 0.18307 | 35130 ft | 445 kts | 225° |
| 2026-04-25 11:25 | 39.92655 | 0.12413 | 35131 ft | 445 kts | 225° |
| 2026-04-25 11:26 | 39.88418 | 0.06529 | 35140 ft | 446 kts | 225° |
| 2026-04-25 11:26 | 39.84191 | 0.00671 | 35138 ft | 446 kts | 225° |
| 2026-04-25 11:27 | 39.79942 | -0.05219 | 35133 ft | 446 kts | 225° |
| 2026-04-25 11:27 | 39.76386 | -0.10145 | 35133 ft | 446 kts | 225° |
| 2026-04-25 11:28 | 39.71438 | -0.16969 | 35139 ft | 446 kts | 224° |
| 2026-04-25 11:28 | 39.67174 | -0.22828 | 35135 ft | 446 kts | 224° |
| 2026-04-25 11:29 | 39.62905 | -0.28676 | 35134 ft | 446 kts | 224° |
| 2026-04-25 11:29 | 39.58640 | -0.34524 | 35134 ft | 446 kts | 224° |
| 2026-04-25 11:30 | 39.54375 | -0.40373 | 35145 ft | 446 kts | 224° |
| 2026-04-25 11:30 | 39.50097 | -0.46204 | 35142 ft | 446 kts | 224° |
| 2026-04-25 11:31 | 39.46156 | -0.52417 | 35144 ft | 448 kts | 231° |
| 2026-04-25 11:31 | 39.42426 | -0.58806 | 35136 ft | 448 kts | 231° |
| 2026-04-25 11:32 | 39.38655 | -0.65210 | 35134 ft | 447 kts | 230° |
| 2026-04-25 11:32 | 39.34887 | -0.71609 | 35144 ft | 447 kts | 231° |
| 2026-04-25 11:33 | 39.31121 | -0.78008 | 35146 ft | 447 kts | 230° |
| 2026-04-25 11:33 | 39.27346 | -0.84407 | 35129 ft | 447 kts | 230° |
| 2026-04-25 11:34 | 39.23570 | -0.90798 | 35127 ft | 447 kts | 230° |
| 2026-04-25 11:34 | 39.19786 | -0.97188 | 35131 ft | 447 kts | 230° |
| 2026-04-25 11:35 | 39.16029 | -1.03516 | 35148 ft | 448 kts | 230° |
| 2026-04-25 11:35 | 39.12237 | -1.09878 | 35148 ft | 448 kts | 230° |
| 2026-04-25 11:36 | 39.08436 | -1.16255 | 35141 ft | 448 kts | 230° |
| 2026-04-25 11:36 | 39.04625 | -1.22629 | 35139 ft | 449 kts | 230° |
| 2026-04-25 11:37 | 39.00811 | -1.28999 | 35140 ft | 450 kts | 230° |
| 2026-04-25 11:37 | 38.96991 | -1.35367 | 35142 ft | 450 kts | 230° |
| 2026-04-25 11:38 | 38.93162 | -1.41733 | 35146 ft | 450 kts | 230° |
| 2026-04-25 11:38 | 38.89333 | -1.48101 | 35157 ft | 450 kts | 230° |
| 2026-04-25 11:39 | 38.85532 | -1.54417 | 35177 ft | 450 kts | 230° |
| 2026-04-25 11:39 | 38.81701 | -1.60766 | 35173 ft | 450 kts | 230° |
| 2026-04-25 11:40 | 38.77857 | -1.67107 | 35168 ft | 450 kts | 230° |
| 2026-04-25 11:40 | 38.74009 | -1.73441 | 35167 ft | 451 kts | 230° |
| 2026-04-25 11:41 | 38.70779 | -1.78753 | 35171 ft | 451 kts | 230° |
| 2026-04-25 11:41 | 38.66943 | -1.85050 | 35172 ft | 451 kts | 230° |
| 2026-04-25 11:42 | 38.63080 | -1.91369 | 35185 ft | 451 kts | 230° |
| 2026-04-25 11:42 | 38.59209 | -1.97696 | 35177 ft | 451 kts | 230° |
| 2026-04-25 11:43 | 38.55336 | -2.04012 | 35170 ft | 451 kts | 230° |
| 2026-04-25 11:43 | 38.51459 | -2.10316 | 35168 ft | 451 kts | 230° |
| 2026-04-25 11:44 | 38.47580 | -2.16625 | 35160 ft | 452 kts | 230° |
| 2026-04-25 11:44 | 38.43703 | -2.22925 | 35160 ft | 451 kts | 230° |
| 2026-04-25 11:45 | 38.39816 | -2.29222 | 35152 ft | 451 kts | 230° |
| 2026-04-25 11:45 | 38.35903 | -2.35490 | 35135 ft | 451 kts | 226° |
| 2026-04-25 11:46 | 38.31599 | -2.41294 | 35122 ft | 451 kts | 224° |
| 2026-04-25 11:46 | 38.27279 | -2.47094 | 35111 ft | 451 kts | 224° |
| 2026-04-25 11:47 | 38.22988 | -2.52851 | 35112 ft | 451 kts | 224° |
| 2026-04-25 11:47 | 38.18657 | -2.58638 | 35112 ft | 452 kts | 224° |
| 2026-04-25 11:48 | 38.14322 | -2.64422 | 35101 ft | 453 kts | 224° |
| 2026-04-25 11:48 | 38.09973 | -2.70229 | 35092 ft | 454 kts | 224° |
| 2026-04-25 11:49 | 38.05613 | -2.76038 | 35082 ft | 455 kts | 223° |
| 2026-04-25 11:49 | 38.01230 | -2.81842 | 35085 ft | 456 kts | 223° |
| 2026-04-25 11:50 | 37.96840 | -2.87647 | 35089 ft | 456 kts | 223° |
| 2026-04-25 11:50 | 37.92452 | -2.93463 | 35080 ft | 457 kts | 223° |
| 2026-04-25 11:51 | 37.88064 | -2.99284 | 35088 ft | 458 kts | 223° |
| 2026-04-25 11:51 | 37.83652 | -3.05098 | 35088 ft | 458 kts | 223° |
| 2026-04-25 11:52 | 37.79228 | -3.10907 | 35082 ft | 459 kts | 224° |
| 2026-04-25 11:52 | 37.74802 | -3.16725 | 35081 ft | 459 kts | 223° |
| 2026-04-25 11:53 | 37.70394 | -3.22508 | 35080 ft | 460 kts | 223° |
| 2026-04-25 11:53 | 37.65946 | -3.28327 | 35091 ft | 460 kts | 223° |
| 2026-04-25 11:54 | 37.61495 | -3.34136 | 35081 ft | 461 kts | 223° |
| 2026-04-25 11:55 | 37.54796 | -3.42858 | 35081 ft | 462 kts | 223° |
| 2026-04-25 11:55 | 37.50326 | -3.48675 | 35076 ft | 462 kts | 223° |
| 2026-04-25 11:55 | 37.48086 | -3.51584 | 34343 ft | 465 kts | 223° |
| 2026-04-25 11:56 | 37.46011 | -3.54697 | 33146 ft | 478 kts | 235° |
| 2026-04-25 11:56 | 37.44318 | -3.58323 | 32023 ft | 483 kts | 238° |
| 2026-04-25 11:56 | 37.42640 | -3.62010 | 30983 ft | 486 kts | 238° |
| 2026-04-25 11:56 | 37.40968 | -3.65706 | 29977 ft | 488 kts | 239° |
| 2026-04-25 11:57 | 37.39291 | -3.69425 | 28781 ft | 489 kts | 239° |
| 2026-04-25 11:57 | 37.37620 | -3.73135 | 28188 ft | 479 kts | 239° |
| 2026-04-25 11:57 | 37.36008 | -3.76714 | 28048 ft | 462 kts | 239° |
| 2026-04-25 11:57 | 37.34451 | -3.80159 | 27912 ft | 445 kts | 239° |
| 2026-04-25 11:58 | 37.32948 | -3.83473 | 27773 ft | 429 kts | 239° |
| 2026-04-25 11:58 | 37.31490 | -3.86668 | 27627 ft | 414 kts | 239° |
| 2026-04-25 11:58 | 37.30085 | -3.89745 | 27479 ft | 400 kts | 239° |
| 2026-04-25 11:58 | 37.28715 | -3.92744 | 27092 ft | 392 kts | 239° |
| 2026-04-25 11:59 | 37.27371 | -3.95683 | 26416 ft | 386 kts | 239° |
| 2026-04-25 11:59 | 37.26042 | -3.98591 | 25742 ft | 382 kts | 239° |
| 2026-04-25 11:59 | 37.24724 | -4.01474 | 25059 ft | 378 kts | 239° |
| 2026-04-25 12:00 | 37.22124 | -4.07153 | 23742 ft | 372 kts | 239° |
| 2026-04-25 12:00 | 37.20841 | -4.09955 | 23015 ft | 369 kts | 239° |
| 2026-04-25 12:00 | 37.18312 | -4.15477 | 21628 ft | 361 kts | 239° |
| 2026-04-25 12:01 | 37.17071 | -4.18180 | 20796 ft | 355 kts | 239° |
| 2026-04-25 12:01 | 37.15849 | -4.20844 | 19966 ft | 350 kts | 239° |
| 2026-04-25 12:01 | 37.14655 | -4.23442 | 19177 ft | 345 kts | 239° |
| 2026-04-25 12:01 | 37.13463 | -4.26023 | 18406 ft | 340 kts | 239° |
| 2026-04-25 12:02 | 37.11127 | -4.31085 | 16675 ft | 330 kts | 239° |
| 2026-04-25 12:02 | 37.09985 | -4.33561 | 15854 ft | 326 kts | 239° |
| 2026-04-25 12:02 | 37.08856 | -4.36002 | 15071 ft | 322 kts | 239° |
| 2026-04-25 12:03 | 37.07740 | -4.38412 | 14258 ft | 322 kts | 239° |
| 2026-04-25 12:03 | 37.06584 | -4.40907 | 13271 ft | 339 kts | 238° |
| 2026-04-25 12:03 | 37.05375 | -4.43513 | 12163 ft | 351 kts | 238° |
| 2026-04-25 12:03 | 37.04133 | -4.46187 | 11126 ft | 360 kts | 239° |
| 2026-04-25 12:04 | 37.02888 | -4.48873 | 10782 ft | 351 kts | 239° |
| 2026-04-25 12:04 | 37.01688 | -4.51463 | 10488 ft | 335 kts | 238° |
| 2026-04-25 12:04 | 37.00547 | -4.53925 | 10131 ft | 320 kts | 238° |
| 2026-04-25 12:04 | 36.99454 | -4.56280 | 9756 ft | 306 kts | 238° |
| 2026-04-25 12:05 | 36.98398 | -4.58558 | 9366 ft | 301 kts | 239° |
| 2026-04-25 12:05 | 36.97354 | -4.60805 | 9086 ft | 294 kts | 239° |
| 2026-04-25 12:05 | 36.96337 | -4.62981 | 8820 ft | 286 kts | 238° |
| 2026-04-25 12:05 | 36.95337 | -4.65119 | 8469 ft | 285 kts | 238° |
| 2026-04-25 12:06 | 36.94341 | -4.67248 | 8100 ft | 280 kts | 239° |
| 2026-04-25 12:06 | 36.93543 | -4.69390 | 7837 ft | 266 kts | 253° |
| 2026-04-25 12:06 | 36.93251 | -4.71623 | 7593 ft | 258 kts | 268° |
| 2026-04-25 12:06 | 36.93148 | -4.73848 | 7225 ft | 256 kts | 255° |
| 2026-04-25 12:07 | 36.92426 | -4.75841 | 6863 ft | 251 kts | 230° |
| 2026-04-25 12:07 | 36.91123 | -4.77249 | 6489 ft | 247 kts | 205° |
| 2026-04-25 12:07 | 36.89503 | -4.77851 | 6186 ft | 241 kts | 181° |
| 2026-04-25 12:07 | 36.87905 | -4.77627 | 5905 ft | 232 kts | 161° |
| 2026-04-25 12:08 | 36.86417 | -4.76865 | 5428 ft | 231 kts | 151° |
| 2026-04-25 12:08 | 36.85012 | -4.75912 | 5039 ft | 227 kts | 151° |
| 2026-04-25 12:08 | 36.83645 | -4.74992 | 4780 ft | 220 kts | 151° |
| 2026-04-25 12:08 | 36.82303 | -4.74090 | 4431 ft | 218 kts | 151° |
| 2026-04-25 12:09 | 36.80987 | -4.73204 | 4187 ft | 210 kts | 152° |
| 2026-04-25 12:09 | 36.79724 | -4.72353 | 3856 ft | 204 kts | 151° |
| 2026-04-25 12:09 | 36.78473 | -4.71512 | 3488 ft | 203 kts | 152° |
| 2026-04-25 12:09 | 36.77385 | -4.70406 | 3239 ft | 204 kts | 130° |
| 2026-04-25 12:10 | 36.76690 | -4.68902 | 3039 ft | 194 kts | 119° |
| 2026-04-25 12:10 | 36.76093 | -4.67460 | 2957 ft | 183 kts | 118° |
| 2026-04-25 12:10 | 36.75511 | -4.66065 | 2773 ft | 179 kts | 119° |
| 2026-04-25 12:10 | 36.74941 | -4.64700 | 2540 ft | 174 kts | 120° |
| 2026-04-25 12:11 | 36.74402 | -4.63412 | 2344 ft | 162 kts | 119° |
| 2026-04-25 12:11 | 36.73904 | -4.62223 | 2117 ft | 148 kts | 120° |
| 2026-04-25 12:11 | 36.73439 | -4.61111 | 1924 ft | 142 kts | 119° |
| 2026-04-25 12:11 | 36.72985 | -4.60030 | 1733 ft | 139 kts | 119° |
| 2026-04-25 12:12 | 36.72538 | -4.58964 | 1545 ft | 138 kts | 119° |
| 2026-04-25 12:12 | 36.72239 | -4.58249 | 1429 ft | 137 kts | 119° |
| 2026-04-25 12:12 | 36.71650 | -4.56846 | 1175 ft | 141 kts | 118° |
| 2026-04-25 12:12 | 36.71192 | -4.55753 | 974 ft | 142 kts | 118° |
| 2026-04-25 12:13 | 36.70738 | -4.54665 | 754 ft | 141 kts | 118° |
| 2026-04-25 12:13 | 36.70288 | -4.53592 | 585 ft | 139 kts | 118° |
| 2026-04-25 12:13 | 36.69840 | -4.52522 | 395 ft | 138 kts | 119° |
| 2026-04-25 12:13 | 36.69398 | -4.51472 | 202 ft | 135 kts | 119° |
| 2026-04-25 12:14 | 36.68967 | -4.50449 | 52 ft | 131 kts | 119° |
| 2026-04-25 12:14 | 36.68606 | -4.49590 | 46 ft | 86 kts | 118° |
| 2026-04-25 12:14 | 36.68419 | -4.49150 | 45 ft | 31 kts | 117° |
| 2026-04-25 12:14 | 36.68303 | -4.48962 | 44 ft | 27 kts | 138° |
| 2026-04-25 12:15 | 36.68172 | -4.48861 | 39 ft | 14 kts | 178° |
| 2026-04-25 12:15 | 36.68146 | -4.48936 | 40 ft | 14 kts | 290° |
| 2026-04-25 12:15 | 36.68203 | -4.49075 | 40 ft | 21 kts | 298° |
| 2026-04-25 12:15 | 36.68268 | -4.49230 | 40 ft | 14 kts | 297° |
| 2026-04-25 12:16 | 36.68269 | -4.49327 | 37 ft | 12 kts | 235° |
| 2026-04-25 12:16 | 36.68202 | -4.49405 | 42 ft | 13 kts | 221° |
| 2026-04-25 12:16 | 36.68114 | -4.49503 | 42 ft | 22 kts | 221° |
| 2026-04-25 12:16 | 36.67982 | -4.49648 | 42 ft | 27 kts | 221° |
| 2026-04-25 12:17 | 36.67867 | -4.49776 | 42 ft | 13 kts | 223° |
| 2026-04-25 12:17 | 36.67793 | -4.49789 | 40 ft | 13 kts | 142° |
| 2026-04-25 12:17 | 36.67715 | -4.49679 | 42 ft | 20 kts | 131° |
| 2026-04-25 12:17 | 36.67656 | -4.49597 | 42 ft | 10 kts | 131° |
| 2026-04-25 12:18 | 36.67609 | -4.49530 | 42 ft | 11 kts | 132° |
| 2026-04-25 12:18 | 36.67595 | -4.49464 | 39 ft | 7 kts | 60° |
| 2026-04-25 12:18 | 36.67624 | -4.49430 | 42 ft | 4 kts | 41° |
| 2026-04-25 12:18 | 36.67631 | -4.49422 | 42 ft | 0 kts | 41° |